메인 페이지
METAR-TAF:

METAR-TAF

공항 :

댈러스 포트워스 국제공항

댈러스 / 포트워스, 텍사스, 미국

위도: 32-53-49N, 경도: 097-01-19W, 고도: 183m

현재 날씨관측

예보는 22분 전, 08:53시(UTC)에 발표되었습니다.
14kt
온도 25°C
습도 69%
기압 1009 hPa
시정: 16.1km
고도 15000ft 상공 구름 보통

METAR: KDFW 200853Z 18014KT 10SM SCT150 25/19 A2979 RMK AO2 SLP078 T02500194 55006

시각: 04:15 (09:15 UTC)

예보

예보는 17분 전, 08:58시(UTC)에 발표되었습니다.
예보 대상 시간: 20일 09시부터 21일 12시까지 (UTC)
남남동14kt
시정: 10km
고도 15000ft 상공 구름 조금
20일 1600시부터 (UTC)
15kt, 순간 최대 풍속 25kt
시정: 10km
고도 25000ft 상공 구름 조금

TAF: KDFW 200858Z 2009/2112 16014KT P6SM FEW150 FM201600 18015G25KT P6SM FEW250

4,000개 이상의 공항 관측 자료 및 예보 (METAR 및 TAF 보고).

지도상에서 검색 가능한 기상관측소가 노란 점과 빨간 점으로 표시되어 있습니다.

기상관측소 명을 보려면 표시 위로 마우스를 이동하세요.

날씨 관측과 예보를 보려면 클릭하세요.

지도 변경 : 확대하려면 엑스 표시가 있는 녹색 버튼, 축소하려면 빼기 표시가 있는 녹색 버튼, 다음 페이지의 지도를 보려면 녹색 화살표를 클릭하세요.


METAR-TAF: